createdAt,value
2022-10-25T00:03:56.815Z,100205.56
2022-10-25T00:08:57.644Z,100203.13
2022-10-25T00:14:01.708Z,100210.19
2022-10-25T00:19:02.517Z,100206.28
2022-10-25T00:24:03.295Z,100206.53
2022-10-25T00:29:05.464Z,100223.25
2022-10-25T00:34:06.275Z,100233.56
2022-10-25T00:39:07.164Z,100221.50
2022-10-25T00:45:01.356Z,100217.28
2022-10-25T00:50:11.935Z,100218.19
2022-10-25T00:55:16.674Z,100223.44
2022-10-25T01:00:19.706Z,100227.97
2022-10-25T01:05:22.778Z,100229.69
2022-10-25T01:10:23.744Z,100224.44
2022-10-25T01:15:29.977Z,100222.41
2022-10-25T01:21:01.115Z,100217.09
2022-10-25T01:26:24.901Z,100210.03
2022-10-25T01:31:32.693Z,100203.06
2022-10-25T01:36:43.800Z,100202.34
2022-10-25T01:41:54.580Z,100211.97
2022-10-25T01:47:03.582Z,100210.72
2022-10-25T01:52:05.089Z,100204.72
2022-10-25T01:57:23.937Z,100210.84
2022-10-25T02:02:31.707Z,100213.16
2022-10-25T02:07:38.663Z,100216.22
2022-10-25T02:12:51.860Z,100217.97
2022-10-25T02:17:58.379Z,100217.25
2022-10-25T02:23:02.161Z,100221.56
2022-10-25T02:28:06.464Z,100220.03
2022-10-25T02:33:08.781Z,100220.75
2022-10-25T02:38:10.011Z,100224.72
2022-10-25T02:43:10.827Z,100218.44
2022-10-25T02:48:12.992Z,100207.03
2022-10-25T02:53:13.815Z,100210.31
2022-10-25T02:58:14.608Z,100207.63
2022-10-25T03:03:16.743Z,100217.81
2022-10-25T03:08:17.580Z,100224.56
2022-10-25T03:13:18.580Z,100219.41
2022-10-25T03:18:20.781Z,100231.63
2022-10-25T03:23:21.556Z,100230.50
2022-10-25T03:28:23.049Z,100233.91
2022-10-25T03:33:26.459Z,100238.91
2022-10-25T03:38:27.350Z,100235.22
2022-10-25T03:43:28.584Z,100237.81
2022-10-25T03:48:30.768Z,100244.03
2022-10-25T03:53:31.668Z,100246.28
2022-10-25T03:58:32.847Z,100241.91
2022-10-25T04:03:35.049Z,100255.84
2022-10-25T04:08:35.896Z,100265.34
2022-10-25T04:13:36.723Z,100259.16
2022-10-25T04:18:38.943Z,100263.72
2022-10-25T04:23:39.772Z,100272.84
2022-10-25T04:28:40.542Z,100277.50
2022-10-25T04:33:45.151Z,100277.06
2022-10-25T04:38:49.245Z,100277.59
2022-10-25T04:43:52.269Z,100279.59
2022-10-25T04:48:54.442Z,100274.50
2022-10-25T04:53:55.324Z,100276.56
2022-10-25T04:58:56.128Z,100284.53
2022-10-25T05:03:58.248Z,100272.31
2022-10-25T05:08:59.044Z,100285.53
2022-10-25T05:13:59.817Z,100283.69
2022-10-25T05:19:02.244Z,100283.47
2022-10-25T05:24:03.505Z,100289.38
2022-10-25T05:29:06.715Z,100293.09
2022-10-25T05:34:12.250Z,100295.63
2022-10-25T05:39:13.080Z,100307.28
2022-10-25T05:44:14.971Z,100320.66
2022-10-25T05:49:17.162Z,100320.97
2022-10-25T05:54:17.994Z,100329.25
2022-10-25T05:59:18.880Z,100325.38
2022-10-25T06:04:21.012Z,100333.25
2022-10-25T06:09:21.992Z,100334.13
2022-10-25T06:14:22.845Z,100341.59
2022-10-25T06:19:25.097Z,100356.53
2022-10-25T06:24:26.145Z,100352.91
2022-10-25T06:29:26.958Z,100365.25
2022-10-25T06:34:29.102Z,100360.19
2022-10-25T06:39:29.935Z,100362.22
2022-10-25T06:44:30.761Z,100366.31
2022-10-25T06:49:32.899Z,100371.78
2022-10-25T06:54:33.721Z,100374.91
2022-10-25T06:59:34.525Z,100373.66
2022-10-25T07:04:37.906Z,100368.75
2022-10-25T07:09:40.828Z,100380.56
2022-10-25T07:14:41.639Z,100381.94
2022-10-25T07:19:43.857Z,100373.81
2022-10-25T07:24:44.663Z,100377.25
2022-10-25T07:29:45.614Z,100368.56
2022-10-25T07:34:47.816Z,100381.13
2022-10-25T07:39:48.647Z,100379.56
2022-10-25T07:44:49.434Z,100384.28
2022-10-25T07:49:51.581Z,100385.84
2022-10-25T07:54:52.353Z,100372.53
2022-10-25T07:59:53.166Z,100377.38
2022-10-25T08:04:55.373Z,100375.84
2022-10-25T08:09:56.206Z,100382.13
2022-10-25T08:14:57.076Z,100375.81
2022-10-25T08:20:00.198Z,100382.91
2022-10-25T08:25:01.431Z,100391.69
2022-10-25T08:30:02.317Z,100388.34
2022-10-25T08:35:04.829Z,100383.63
2022-10-25T08:40:07.056Z,100392.94
2022-10-25T08:45:17.392Z,100387.88
2022-10-25T08:50:23.825Z,100392.69
2022-10-25T08:55:34.056Z,100394.28
2022-10-25T09:00:39.153Z,100397.09
2022-10-25T09:05:43.850Z,100402.56
2022-10-25T09:10:54.557Z,100408.81
2022-10-25T09:16:04.510Z,100401.53
2022-10-25T09:21:22.184Z,100404.16
2022-10-25T09:26:34.416Z,100403.97
2022-10-25T09:31:41.826Z,100398.81
2022-10-25T09:36:47.255Z,100402.91
2022-10-25T09:41:51.414Z,100413.34
2022-10-25T09:46:55.781Z,100425.16
2022-10-25T09:52:04.378Z,100420.34
2022-10-25T09:57:05.487Z,100425.47
2022-10-25T10:02:06.501Z,100430.56
2022-10-25T10:07:15.745Z,100439.59
2022-10-25T10:12:22.333Z,100444.19
2022-10-25T10:17:24.257Z,100445.66
2022-10-25T10:22:26.619Z,100439.78
2022-10-25T10:27:29.279Z,100429.31
2022-10-25T10:32:34.279Z,100442.50
2022-10-25T10:37:37.952Z,100447.22
2022-10-25T10:42:41.402Z,100447.00
2022-10-25T10:47:45.475Z,100435.03
2022-10-25T10:52:49.164Z,100445.81
2022-10-25T10:57:53.086Z,100436.00
2022-10-25T11:07:59.210Z,100450.94
2022-10-25T11:13:15.981Z,100457.97
2022-10-25T11:18:20.362Z,100453.84
2022-10-25T11:23:31.483Z,100458.56
2022-10-25T11:28:43.318Z,100446.19
2022-10-25T11:33:54.165Z,100457.50
2022-10-25T11:39:10.294Z,100456.41
2022-10-25T11:44:45.682Z,100456.81
2022-10-25T11:49:59.851Z,100452.31
2022-10-25T11:55:14.622Z,100455.16
2022-10-25T12:00:18.243Z,100445.00
2022-10-25T12:05:30.787Z,100452.31
2022-10-25T12:10:37.015Z,100471.34
2022-10-25T12:15:43.032Z,100453.25
2022-10-25T12:20:46.845Z,100456.69
2022-10-25T12:25:52.840Z,100450.22
2022-10-25T12:31:02.002Z,100458.97
2022-10-25T12:36:06.467Z,100453.50
2022-10-25T12:41:16.154Z,100450.78
2022-10-25T12:46:51.883Z,100452.69
2022-10-25T12:52:07.950Z,100466.09
2022-10-25T12:57:20.424Z,100465.13
2022-10-25T13:03:10.233Z,100453.22
2022-10-25T13:08:13.891Z,100459.53
2022-10-25T13:13:22.812Z,100460.75
2022-10-25T13:18:42.235Z,100453.75
2022-10-25T13:23:59.932Z,100470.41
2022-10-25T13:29:04.856Z,100463.44
2022-10-25T13:34:31.735Z,100468.63
2022-10-25T13:39:36.650Z,100470.47
2022-10-25T13:44:51.448Z,100470.53
2022-10-25T13:49:52.421Z,100474.22
2022-10-25T13:54:57.635Z,100478.19
2022-10-25T14:00:03.411Z,100462.69
2022-10-25T14:05:13.358Z,100476.19
2022-10-25T14:10:49.665Z,100478.19
2022-10-25T14:15:57.428Z,100485.66
2022-10-25T14:21:02.913Z,100489.06
2022-10-25T14:26:06.184Z,100486.31
2022-10-25T14:31:13.077Z,100482.16
2022-10-25T14:36:26.407Z,100493.50
2022-10-25T14:41:28.737Z,100489.34
2022-10-25T14:46:33.541Z,100488.56
2022-10-25T14:51:38.167Z,100501.94
2022-10-25T14:56:41.811Z,100498.72
2022-10-25T15:01:53.369Z,100495.16
2022-10-25T15:06:54.422Z,100496.06
2022-10-25T15:12:19.559Z,100493.41
2022-10-25T15:17:28.473Z,100500.50
2022-10-25T15:22:30.625Z,100505.41
2022-10-25T15:27:40.420Z,100496.91
2022-10-25T15:32:42.762Z,100503.91
2022-10-25T15:37:43.593Z,100498.34
2022-10-25T15:42:44.530Z,100498.53
2022-10-25T15:47:47.616Z,100492.25
2022-10-25T15:52:48.744Z,100503.25
2022-10-25T15:57:50.577Z,100499.66
2022-10-25T16:02:53.197Z,100508.91
2022-10-25T16:07:54.498Z,100507.75
2022-10-25T16:12:59.624Z,100514.28
2022-10-25T16:18:01.945Z,100516.72
2022-10-25T16:23:02.825Z,100515.28
2022-10-25T16:28:03.746Z,100522.25
2022-10-25T16:33:06.096Z,100521.91
2022-10-25T16:38:07.698Z,100535.31
2022-10-25T16:43:12.028Z,100544.47
2022-10-25T16:48:14.271Z,100547.72
2022-10-25T16:53:15.995Z,100542.31
2022-10-25T16:58:16.834Z,100551.44
2022-10-25T17:03:19.427Z,100564.63
2022-10-25T17:08:20.311Z,100577.13
2022-10-25T17:13:21.568Z,100574.25
2022-10-25T17:18:26.926Z,100574.25
2022-10-25T17:23:27.776Z,100589.88
2022-10-25T17:28:28.720Z,100590.03
2022-10-25T17:33:32.744Z,100589.13
2022-10-25T17:38:33.633Z,100601.50
2022-10-25T17:43:35.743Z,100607.59
2022-10-25T17:48:37.925Z,100602.91
2022-10-25T17:53:38.890Z,100604.88
2022-10-25T17:58:41.551Z,100600.53
2022-10-25T18:03:43.790Z,100606.03
2022-10-25T18:08:45.425Z,100607.56
2022-10-25T18:13:46.878Z,100610.38
2022-10-25T18:18:49.318Z,100616.00
2022-10-25T18:23:50.350Z,100630.78
2022-10-25T18:28:51.215Z,100623.28
2022-10-25T18:33:55.220Z,100626.00
2022-10-25T18:38:56.526Z,100622.72
2022-10-25T18:43:58.568Z,100625.50
2022-10-25T18:49:00.789Z,100622.25
2022-10-25T18:54:02.895Z,100617.19
2022-10-25T18:59:03.938Z,100614.78
2022-10-25T19:04:06.431Z,100626.97
2022-10-25T19:09:07.299Z,100615.75
2022-10-25T19:14:08.151Z,100623.75
2022-10-25T19:19:11.967Z,100622.25
2022-10-25T19:24:15.849Z,100613.53
2022-10-25T19:29:17.014Z,100619.88
2022-10-25T19:34:19.344Z,100623.50
2022-10-25T19:39:20.150Z,100624.44
2022-10-25T19:44:21.013Z,100626.28
2022-10-25T19:49:23.167Z,100622.75
2022-10-25T19:54:23.967Z,100622.81
2022-10-25T19:59:24.911Z,100627.19
2022-10-25T20:04:27.255Z,100641.31
2022-10-25T20:09:28.189Z,100643.97
2022-10-25T20:14:30.812Z,100640.38
2022-10-25T20:19:33.293Z,100640.47
2022-10-25T20:24:34.201Z,100643.22
2022-10-25T20:29:35.016Z,100645.06
2022-10-25T20:34:37.499Z,100643.41
2022-10-25T20:39:38.281Z,100655.56
2022-10-25T20:44:39.066Z,100646.13
2022-10-25T20:49:41.300Z,100643.53
2022-10-25T20:54:42.285Z,100648.78
2022-10-25T20:59:43.169Z,100648.06
2022-10-25T21:04:53.355Z,100650.84
2022-10-25T21:09:54.722Z,100647.41
2022-10-25T21:14:55.537Z,100657.03
2022-10-25T21:19:57.700Z,100658.78
2022-10-25T21:24:58.685Z,100663.09
2022-10-25T21:29:59.440Z,100662.28
2022-10-25T21:35:01.762Z,100676.19
2022-10-25T21:40:02.543Z,100673.63
2022-10-25T21:45:03.333Z,100672.84
2022-10-25T21:50:05.902Z,100674.63
2022-10-25T21:55:07.786Z,100673.03
2022-10-25T22:00:10.315Z,100676.53
2022-10-25T22:05:15.268Z,100668.78
2022-10-25T22:10:16.634Z,100671.50
2022-10-25T22:15:17.661Z,100679.31
2022-10-25T22:20:19.903Z,100663.81
2022-10-25T22:25:20.983Z,100671.66
2022-10-25T22:30:22.451Z,100676.88
2022-10-25T22:35:25.197Z,100675.22
2022-10-25T22:40:26.000Z,100677.06
2022-10-25T22:45:26.770Z,100671.00
2022-10-25T22:50:28.992Z,100667.53
2022-10-25T22:55:29.871Z,100656.31
2022-10-25T23:00:30.637Z,100669.34
2022-10-25T23:05:32.865Z,100672.00
2022-10-25T23:10:33.726Z,100666.88
2022-10-25T23:15:34.597Z,100678.97
2022-10-25T23:20:36.745Z,100678.97
2022-10-25T23:25:37.574Z,100677.28
2022-10-25T23:30:38.450Z,100667.81
2022-10-25T23:35:42.149Z,100668.69
2022-10-25T23:40:47.724Z,100658.38
2022-10-25T23:45:48.758Z,100673.06
2022-10-25T23:50:57.465Z,100664.50
2022-10-25T23:55:58.563Z,100673.16
